Weather at Flin Flon Airport

Public forecast

Using degrees Celsius for public forecast. Weather courtesy of forecast.io.

Current aviation weather report (METAR) for Flin Flon Airport

Retrieved 2020/11/28 00:00 UTC (55 minutes ago):

CYFO 280000Z 23008KT 15SM BKN045 M01/M05 A2952 RMK SC6 LAST OBS/ NEXT 281200UTC SLP019

Closest aviation forecast (TAF) to Flin Flon Airport

Closest forecast is The Pas Airport, 47.2 nm (87.4 km) SSE. Retrieved 2020-11-28 01:42 UTC (0 seconds ago):

TAF TAF CYQD 280038Z 2801/2813 25012KT P6SM FEW060 BECMG 2803/2805 27006KT RMK FCST BASED ON AUTO OBS NXT FCST BY 280700Z